Lake Lincoln, Indiana
Current Conditions -  °F | °C
As of 9:55 PM on Saturday 20 Dec 2014 (Local Time) from KHNB Reporting Station
Clear Clear  
Wind Chill: 27°   Ceiling: Unl
Heat Index: 27°   Visibility: 5mi
Dew Point: 21°   Wind: 3mph
Humidity: 80%   Direction: 60°ENE
Pressure: 30.31"   Gusts: NA
Location:  38.1283°N, 86.9862°W
Report Text: KHNB 210355Z AUTO 06003KT 5SM CLR M03/M06 A3031 RMK AO1
Loading
Personal Weather Stations






























Interactive Weather Map New forecast layout! Learn more

10-Day Weather Forecast

Advertisements
Track Severe Weather on mobile